Latest Weather Observations for Ferny Creek

IDV60901

Issued at 3:41 pm EST Wednesday 27 July 2016 (issued every 10 minutes, with the page automatically refreshed every 10 minutes)

About weather observations | Map of Melbourne area stations | Latest observations for Melbourne area | Other Formats
Station Details ID: 086266 Name: FERNY CREEK Lat: -37.87 Lon: 145.35 Height: 512.9 m
Data from the previous 72 hours. | See also: Recent months at Ferny Creek
Date/Time
EST
Temp
°C
App
Temp
°C
Dew
Point
°C
Rel
Hum
%
Delta-T
°C
Wind Press
QNH
hPa
Press
MSL
hPa
Rain since
9am
mm
Dir  Spd
km/h
Gust
km/h
Spd
kts
Gust
kts
27/03:30pm 6.2 3.7 3.5 83 1.2 W 6 13 3 7 1017.0 1017.8 4.8
27/03:00pm 6.5 4.5 4.5 87 0.9 WSW 4 15 2 8 1016.3 1017.1 4.8
27/02:30pm 6.3 4.1 5.3 93 0.5 WSW 6 11 3 6 1015.7 1016.5 4.8
27/02:00pm 5.6 3.7 4.7 94 0.4 W 4 7 2 4 1015.7 1016.5 4.8
27/01:30pm 5.3 2.9 4.4 94 0.4 W 6 15 3 8 1015.4 1016.2 4.8
27/01:00pm 5.2 2.6 4.2 93 0.4 W 7 17 4 9 1015.2 1016.0 4.0
27/12:30pm 6.4 4.4 4.4 87 0.9 W 4 13 2 7 1014.8 1015.5 2.4
27/12:00pm 6.3 4.5 5.4 94 0.4 W 4 9 2 5 1014.6 1015.4 2.4
27/11:30am 5.8 3.3 4.9 94 0.4 WSW 7 17 4 9 1014.1 1014.9 2.4
27/11:00am 7.0 4.8 6.4 96 0.3 WSW 7 22 4 12 1014.0 1014.8 1.6
27/10:30am 5.8 3.0 5.2 96 0.3 WSW 9 26 5 14 1013.9 1014.7 1.4
27/10:00am 5.6 2.4 5.0 96 0.3 WSW 11 37 6 20 1013.3 1014.0 0.8
27/09:30am 5.9 2.8 5.5 97 0.2 WSW 11 30 6 16 1012.3 1013.1 0.4
27/09:00am 6.1 3.4 5.7 97 0.2 WSW 9 22 5 12 1011.5 1012.2 5.6
27/08:30am 5.8 4.0 5.4 97 0.2 WNW 4 13 2 7 1010.5 1011.3 3.8
27/08:00am 5.5 3.6 4.9 96 0.3 WNW 4 6 2 3 1009.9 1010.6 1.2
27/07:30am 5.3 3.7 4.7 96 0.3 WNW 2 4 1 2 1009.3 1010.0 1.0
27/07:00am 5.2 3.6 4.6 96 0.3 WNW 2 4 1 2 1008.6 1009.3 0.8
27/06:30am 5.1 3.1 4.5 96 0.3 NW 4 9 2 5 1007.9 1008.6 0.8
27/06:00am 5.0 2.6 4.3 95 0.3 WNW 6 11 3 6 1007.4 1008.1 0.4
27/05:30am 5.0 2.6 4.1 94 0.4 NW 6 11 3 6 1006.8 1007.5 0.0
27/05:00am 4.9 2.8 3.7 92 0.5 W 4 9 2 5 1006.3 1007.0 0.0
27/04:30am 5.0 2.3 3.5 90 0.6 WNW 7 15 4 8 1005.8 1006.5 0.0
27/04:00am 5.0 2.3 3.5 90 0.6 NW 7 15 4 8 1005.3 1006.0 0.0
27/03:30am 5.1 2.5 3.4 89 0.7 NW 6 13 3 7 1005.2 1005.9 0.0
27/03:00am 5.2 2.0 3.2 87 0.9 NNW 9 19 5 10 1004.9 1005.5 0.0
27/02:30am 5.2 2.4 3.1 86 0.9 NNW 7 17 4 9 1004.5 1005.1 0.0
27/02:00am 5.3 1.7 3.2 86 0.9 N 11 32 6 17 1004.6 1005.2 0.0
27/01:30am 5.3 1.7 2.8 84 1.1 N 11 26 6 14 1004.7 1005.3 0.0
27/01:00am 5.5 1.9 2.7 82 1.2 N 11 32 6 17 1004.7 1005.3 0.0
27/12:30am 5.5 2.2 2.5 81 1.3 N 9 20 5 11 1004.9 1005.5 0.0
27/12:00am 5.4 1.7 2.4 81 1.3 N 11 24 6 13 1005.0 1005.6 0.0
 
Date/Time
EST
Temp
°C
App
Temp
°C
Dew
Point
°C
Rel
Hum
%
Delta-T
°C
Wind Press
QNH
hPa
Press
MSL
hPa
Rain since
9am
mm
Dir  Spd
km/h
Gust
km/h
Spd
kts
Gust
kts
26/11:30pm 5.5 2.2 2.2 79 1.4 N 9 20 5 11 1005.2 1005.9 0.0
26/11:00pm 6.0 1.9 2.1 76 1.6 N 13 32 7 17 1005.4 1006.1 0.0
26/10:30pm 5.9 1.7 1.8 75 1.7 N 13 30 7 16 1005.6 1006.3 0.0
26/10:00pm 5.6 1.9 2.1 78 1.5 N 11 26 6 14 1006.1 1006.8 0.0
26/09:30pm 5.5 1.7 1.8 77 1.5 N 11 26 6 14 1005.9 1006.6 0.0
26/09:00pm 5.5 1.7 1.8 77 1.5 N 11 24 6 13 1006.0 1006.7 0.0
26/08:30pm 5.5 1.8 2.3 80 1.3 N 11 24 6 13 1006.7 1007.3 0.0
26/08:00pm 5.3 1.6 2.5 82 1.2 N 11 28 6 15 1006.7 1007.3 0.0
26/07:30pm 5.0 1.3 2.4 83 1.1 N 11 28 6 15 1007.0 1007.7 0.0
26/07:00pm 4.9 1.6 2.4 84 1.0 N 9 20 5 11 1007.5 1008.2 0.0
26/06:30pm 4.9 1.2 2.3 83 1.1 N 11 24 6 13 1007.5 1008.2 0.0
26/06:00pm 4.9 1.1 1.7 80 1.3 N 11 26 6 14 1007.5 1008.2 0.0
26/05:30pm 4.9 1.1 1.7 80 1.3 N 11 24 6 13 1007.5 1008.2 0.0
26/05:00pm 5.0 1.6 1.7 79 1.4 N 9 19 5 10 1007.8 1008.5 0.0
26/04:30pm 5.1 2.0 1.4 77 1.5 N 7 24 4 13 1007.8 1008.5 0.0
26/04:00pm 5.2 2.1 1.3 76 1.6 N 7 22 4 12 1008.2 1008.9 0.0
26/03:30pm 5.2 2.1 1.3 76 1.6 N 7 15 4 8 1008.8 1009.5 0.0
26/03:00pm 5.0 2.1 1.3 77 1.5 NNW 6 19 3 10 1009.2 1009.9 0.0
26/02:30pm 5.1 1.5 0.9 74 1.7 NNW 9 19 5 10 1009.4 1010.1 0.0
26/02:00pm 5.1 1.9 0.9 74 1.7 NNW 7 20 4 11 1009.7 1010.4 0.0
26/01:30pm 5.5 2.3 0.7 71 1.9 NNW 7 19 4 10 1009.9 1010.6 0.0
26/01:00pm 5.5 2.3 0.7 71 1.9 NNW 7 19 4 10 1010.3 1011.1 0.0
26/12:30pm 5.4 1.8 0.4 70 2.0 NNW 9 26 5 14 1010.9 1011.6 0.0
26/12:00pm 5.3 2.1 0.9 73 1.8 N 7 17 4 9 1011.2 1011.9 0.0
26/11:30am 5.2 1.2 0.6 72 1.8 NNW 11 33 6 18 1011.4 1012.1 0.0
26/11:00am 4.9 1.7 0.9 75 1.6 NNW 7 13 4 7 1011.5 1012.2 0.0
26/10:30am 4.2 1.0 0.7 78 1.4 NNW 7 19 4 10 1011.7 1012.5 0.0
26/10:00am 4.1 1.1 0.6 78 1.4 NW 6 20 3 11 1011.6 1012.3 0.0
26/09:30am 4.0 1.0 0.7 79 1.3 NW 6 15 3 8 1011.6 1012.3 0.0
26/09:00am 3.3 0.0 0.4 81 1.1 NW 7 17 4 9 1011.6 1012.3 7.4
26/08:30am 3.1 -0.1 0.5 83 1.0 NW 7 15 4 8 1011.4 1012.1 7.4
26/08:00am 3.0 0.0 0.6 84 0.9 WNW 6 11 3 6 1011.2 1011.9 7.4
26/07:30am 2.8 -0.2 0.5 85 0.9 WNW 6 13 3 7 1010.9 1011.6 7.4
26/07:00am 2.7 -0.4 0.4 85 0.9 NW 6 15 3 8 1010.5 1011.3 7.4
26/06:30am 2.8 -0.5 0.4 84 0.9 NW 7 17 4 9 1010.1 1010.9 7.4
26/06:00am 2.8 -0.5 0.4 84 0.9 NW 7 17 4 9 1009.7 1010.4 7.4
26/05:30am 2.6 -0.7 0.3 85 0.9 NW 7 15 4 8 1009.4 1010.1 7.4
26/05:00am 2.5 -0.8 0.4 86 0.8 WNW 7 13 4 7 1009.0 1009.7 7.4
26/04:30am 2.4 -0.3 0.3 86 0.8 W 4 15 2 8 1008.7 1009.4 7.4
26/04:00am 2.6 -0.5 0.2 84 0.9 WNW 6 11 3 6 1008.6 1009.3 7.4
26/03:30am 2.6 -0.7 -0.2 82 1.1 WNW 7 17 4 9 1008.4 1009.2 7.4
26/03:00am 3.1 -0.2 0.3 82 1.1 NW 7 24 4 13 1008.4 1009.2 7.4
26/02:30am 3.1 -0.6 0.2 81 1.1 WNW 9 20 5 11 1008.2 1008.9 7.4
26/02:00am 2.8 -0.3 0.4 84 0.9 WNW 6 11 3 6 1008.1 1008.8 7.4
26/01:30am 2.3 -0.8 0.0 85 0.9 W 6 11 3 6 1007.7 1008.4 7.4
26/01:00am 2.9 -0.8 0.0 81 1.1 NW 9 19 5 10 1007.2 1007.9 7.4
26/12:30am 2.8 -0.3 0.4 84 0.9 NW 6 13 3 7 1007.3 1008.0 7.4
26/12:00am 3.1 -0.2 0.3 82 1.1 W 7 19 4 10 1007.0 1007.7 7.4
 
Date/Time
EST
Temp
°C
App
Temp
°C
Dew
Point
°C
Rel
Hum
%
Delta-T
°C
Wind Press
QNH
hPa
Press
MSL
hPa
Rain since
9am
mm
Dir  Spd
km/h
Gust
km/h
Spd
kts
Gust
kts
25/11:30pm 3.2 -0.4 0.8 84 0.9 W 9 19 5 10 1006.9 1007.6 7.4
25/11:00pm 2.8 -0.2 1.0 88 0.7 W 6 22 3 12 1006.6 1007.2 7.4
25/10:30pm 2.9 -0.3 0.8 86 0.8 W 7 17 4 9 1006.1 1006.8 7.4
25/10:00pm 3.7 0.6 1.4 85 0.9 WSW 7 24 4 13 1005.8 1006.5 7.4
25/09:30pm 4.5 1.3 3.2 91 0.6 W 9 24 5 13 1005.5 1006.2 7.4
25/09:00pm 4.1 0.9 3.2 94 0.4 W 9 19 5 10 1005.3 1006.0 7.4
25/08:30pm 6.0 3.8 5.4 96 0.3 WSW 6 30 3 16 1004.9 1005.5 7.2
25/08:00pm 6.5 3.5 6.1 97 0.2 WNW 11 26 6 14 1004.5 1005.1 7.0
25/07:30pm 6.5 3.9 5.9 96 0.3 WNW 9 19 5 10 1004.1 1004.8 7.0
25/07:00pm 6.6 3.5 5.6 93 0.5 W 11 35 6 19 1003.6 1004.3 3.2
25/06:30pm 7.7 3.5 3.9 77 1.7 NNW 15 32 8 17 1001.8 1002.5 0.0
25/06:00pm 7.5 3.4 4.1 79 1.5 N 15 37 8 20 1001.7 1002.3 0.0
25/05:30pm 7.2 3.0 3.8 79 1.5 N 15 32 8 17 1001.7 1002.3 0.0
25/05:00pm 7.3 3.4 3.5 77 1.7 N 13 33 7 18 1002.2 1002.9 0.0
25/04:30pm 7.3 3.0 3.2 75 1.8 N 15 32 8 17 1002.7 1003.3 0.0
25/04:00pm 7.9 4.3 2.8 70 2.2 N 11 32 6 17 1003.0 1003.6 0.0
25/03:30pm 8.4 4.8 2.8 68 2.4 N 11 33 6 18 1003.7 1004.4 0.0
25/03:00pm 7.7 3.6 2.4 69 2.3 N 13 28 7 15 1004.3 1005.0 0.0
25/02:30pm 7.8 4.1 2.5 69 2.3 N 11 19 6 10 1004.8 1005.4 0.0
25/02:00pm 7.8 4.3 3.7 75 1.8 NNW 11 35 6 19 1005.1 1005.8 0.0
25/01:30pm 7.4 4.4 4.0 79 1.5 NNW 9 20 5 11 1005.8 1006.5 0.0
25/01:00pm 7.3 4.3 4.1 80 1.4 NNW 9 24 5 13 1006.5 1007.1 0.0
25/12:30pm 7.5 3.8 4.6 82 1.3 NW 13 37 7 20 1007.0 1007.7 0.0
25/12:00pm 6.2 3.3 4.4 88 0.8 NNW 9 20 5 11 1007.3 1008.0 0.0
25/11:30am 6.2 3.8 4.5 89 0.8 NNW 6 15 3 8 1007.8 1008.5 0.0
25/11:00am 5.8 3.3 4.6 92 0.5 WNW 7 19 4 10 1008.1 1008.8 0.0
25/10:30am 5.6 3.0 4.1 90 0.7 NW 7 19 4 10 1008.2 1008.9 0.0
25/10:00am 5.5 2.9 4.0 90 0.7 WNW 7 17 4 9 1008.2 1008.9 0.0
25/09:30am 5.2 2.7 3.7 90 0.6 NW 6 15 3 8 1008.1 1008.8 0.0
25/09:00am 5.0 2.5 3.5 90 0.6 NW 6 15 3 8 1007.9 1008.6 1.4
25/08:30am 4.8 1.6 3.3 90 0.6 NW 9 15 5 8 1007.9 1008.6 1.4
25/08:00am 4.7 2.1 3.4 91 0.6 NW 6 11 3 6 1007.5 1008.2 1.2
25/07:30am 4.6 1.8 3.3 91 0.6 WNW 7 17 4 9 1007.1 1007.8 1.2
25/07:00am 4.5 1.7 3.2 91 0.6 NW 7 19 4 10 1006.8 1007.5 1.2
25/06:30am 4.3 1.5 3.3 93 0.4 NW 7 17 4 9 1006.5 1007.1 1.2
25/06:00am 4.1 1.3 3.2 94 0.4 NW 7 15 4 8 1006.0 1006.7 1.2
25/05:30am 4.0 1.4 3.1 94 0.4 NW 6 13 3 7 1005.9 1006.6 1.2
25/05:00am 3.9 1.1 2.9 93 0.4 NW 7 15 4 8 1005.7 1006.4 1.2
25/04:30am 4.0 1.1 2.8 92 0.5 WNW 7 17 4 9 1005.3 1006.0 1.0
25/04:00am 4.0 0.7 2.5 90 0.6 NW 9 22 5 12 1005.0 1005.6 1.0
25/03:30am 4.0 1.3 2.5 90 0.6 NW 6 11 3 6 1004.8 1005.4 1.0
25/03:00am 4.1 1.2 2.8 91 0.5 NNW 7 15 4 8 1004.8 1005.4 1.0
25/02:30am 4.3 1.4 2.8 90 0.6 NNW 7 17 4 9 1004.7 1005.3 1.0
25/02:00am 4.3 1.4 2.8 90 0.6 NNW 7 19 4 10 1004.6 1005.2 1.0
25/01:30am 4.3 1.4 2.8 90 0.6 NNW 7 17 4 9 1004.6 1005.2 1.0
25/01:00am 4.3 1.6 2.8 90 0.6 NNW 6 11 3 6 1004.5 1005.1 1.0
25/12:30am 4.1 1.2 2.8 91 0.5 NNW 7 17 4 9 1004.5 1005.1 1.0
25/12:00am 4.2 1.6 3.0 92 0.5 NNW 6 13 3 7 1004.5 1005.1 1.0
 
Date/Time
EST
Temp
°C
App
Temp
°C
Dew
Point
°C
Rel
Hum
%
Delta-T
°C
Wind Press
QNH
hPa
Press
MSL
hPa
Rain since
9am
mm
Dir  Spd
km/h
Gust
km/h
Spd
kts
Gust
kts
24/11:30pm 4.4 1.8 3.4 93 0.4 NNW 6 17 3 9 1004.6 1005.2 1.0
24/11:00pm 4.4 1.3 3.4 93 0.4 NNW 9 20 5 11 1004.2 1004.9 1.0
24/10:30pm 4.5 1.8 3.6 94 0.4 NNW 7 19 4 10 1004.2 1004.9 1.0
24/10:00pm 4.4 1.8 3.4 93 0.4 NNW 6 15 3 8 1004.3 1005.0 0.8
24/09:30pm 4.6 1.8 3.3 91 0.6 N 7 15 4 8 1004.5 1005.1 0.4
24/09:00pm 4.9 2.1 2.9 87 0.9 N 7 20 4 11 1004.3 1005.0 0.0
24/08:30pm 5.2 2.4 2.9 85 1.0 N 7 17 4 9 1004.6 1005.2 0.0
24/08:00pm 5.5 2.3 2.8 83 1.2 N 9 28 5 15 1004.6 1005.2 0.0
24/07:30pm 5.3 2.0 2.7 83 1.1 NNE 9 26 5 14 1004.3 1005.0 0.0
24/07:00pm 5.1 0.7 2.6 84 1.1 NNE 15 26 8 14 1004.2 1004.9 0.0
24/06:30pm 4.9 1.2 2.3 83 1.1 N 11 22 6 12 1004.5 1005.1 0.0
24/06:00pm 4.8 1.5 2.5 85 1.0 NNE 9 22 5 12 1004.2 1004.9 0.0
24/05:30pm 5.2 1.9 2.6 83 1.1 N 9 24 5 13 1004.6 1005.2 0.0
24/05:00pm 5.2 1.9 2.4 82 1.2 NNE 9 19 5 10 1005.0 1005.6 0.0
24/04:30pm 5.5 2.5 2.3 80 1.3 N 7 20 4 11 1005.1 1005.8 0.0
24/04:00pm 6.0 2.6 2.1 76 1.6 N 9 19 5 10 1005.3 1006.0 0.0

Latest Capital City Observations: Canberra | Sydney | Melbourne | Brisbane | Adelaide | Perth | Hobart | Darwin

Other Formats:

Comma delimited format used in spreadsheet applications
http://www.bom.gov.au/fwo/IDV60901/IDV60901.94872.axf

JavaScript Object Notation format (JSON) in row-major order
http://www.bom.gov.au/fwo/IDV60901/IDV60901.94872.json